Time;durP1;ratioP1;P1;durP2;ratioP2;P2;SDS_P1;SDS_P2;PMS_P1;PMS_P2;Temp;Humidity;BMP_temperature;BMP_pressure;BME280_temperature;BME280_humidity;BME280_pressure;Samples;Min_cycle;Max_cycle;Signal;HPM_P1;HPM_P2
2022/09/11 00:01:21;;;;;;;17.45;14.60;;;;;;;26.63;42.32;101869.00;5071491;28;20444;-72
2022/09/11 00:03:47;;;;;;;18.40;14.65;;;;;;;26.42;42.71;101876.56;5052376;28;20056;-73
2022/09/11 00:06:19;;;;;;;20.35;14.40;;;;;;;26.42;42.84;101876.56;5071534;28;20060;-73
2022/09/11 00:08:45;;;;;;;25.42;16.63;;;;;;;26.70;41.93;101874.88;5059377;28;20035;-73
2022/09/11 00:11:19;;;;;;;25.15;15.70;;;;;;;26.59;42.49;101871.00;5066526;28;20411;-73
2022/09/11 00:13:48;;;;;;;22.27;15.48;;;;;;;26.80;42.23;101870.66;5052875;28;20028;-72
2022/09/11 00:16:18;;;;;;;21.15;15.52;;;;;;;26.66;42.16;101868.81;5069836;28;20039;-73
2022/09/11 00:18:45;;;;;;;20.77;15.35;;;;;;;26.70;42.46;101874.88;5053439;28;20033;-73
2022/09/11 00:21:11;;;;;;;19.42;15.05;;;;;;;26.74;42.09;101873.72;5039589;28;20035;-73
2022/09/11 00:23:37;;;;;;;23.50;16.38;;;;;;;26.61;42.35;101872.72;5043234;28;20028;-73
2022/09/11 00:26:03;;;;;;;24.40;15.93;;;;;;;26.62;42.17;101872.63;5035950;28;20060;-74
2022/09/11 00:28:29;;;;;;;20.63;15.80;;;;;;;26.76;42.00;101869.13;5033700;28;20021;-72
2022/09/11 00:31:11;;;;;;;20.25;17.27;;;;;;;26.72;42.00;101867.59;5032578;28;20090;-73
2022/09/11 00:33:37;;;;;;;22.02;16.30;;;;;;;26.70;42.03;101866.84;5037725;28;20067;-73
2022/09/11 00:36:06;;;;;;;22.13;16.25;;;;;;;26.54;42.49;101875.81;5071434;28;20021;-73
2022/09/11 00:38:35;;;;;;;24.27;16.55;;;;;;;26.38;42.99;101875.88;5069189;28;20035;-73
2022/09/11 00:41:02;;;;;;;24.23;16.40;;;;;;;26.57;42.21;101875.59;5040621;28;20163;-73
2022/09/11 00:43:29;;;;;;;22.70;16.88;;;;;;;26.33;42.92;101877.09;5068469;28;20484;-73
2022/09/11 00:45:58;;;;;;;21.20;16.65;;;;;;;26.65;42.20;101876.94;5053289;28;20060;-73
2022/09/11 00:48:29;;;;;;;23.27;16.02;;;;;;;26.96;41.57;101867.03;5067903;28;20188;-72
2022/09/11 00:50:57;;;;;;;20.65;15.57;;;;;;;26.88;41.79;101865.66;5066774;28;20466;-72
2022/09/11 00:53:26;;;;;;;22.92;17.25;;;;;;;26.81;42.28;101872.38;5074951;28;20498;-73
2022/09/11 00:55:56;;;;;;;25.23;16.27;;;;;;;26.84;42.41;101872.19;5053011;28;20485;-73
2022/09/11 00:58:27;;;;;;;23.52;15.88;;;;;;;27.04;41.99;101875.44;5070710;28;20021;-72
2022/09/11 01:00:54;;;;;;;19.13;15.00;;;;;;;27.36;41.79;101868.03;5052698;28;20028;-73
2022/09/11 01:03:21;;;;;;;20.38;15.00;;;;;;;27.19;41.30;101868.22;5080175;28;20035;-72
2022/09/11 01:05:47;;;;;;;18.17;14.10;;;;;;;27.45;40.87;101865.69;5088558;28;20028;-73
2022/09/11 01:08:12;;;;;;;22.65;15.70;;;;;;;27.17;41.47;101868.31;5091432;28;20043;-73
2022/09/11 01:10:49;;;;;;;22.42;15.77;;;;;;;27.30;41.58;101872.91;5075278;28;20489;-73
2022/09/11 01:13:37;;;;;;;22.33;15.27;;;;;;;27.77;40.88;101866.28;5064578;28;20102;-74
2022/09/11 01:16:28;;;;;;;21.08;15.05;;;;;;;27.46;41.54;101868.28;5056928;28;20141;-72
2022/09/11 01:19:20;;;;;;;19.55;14.93;;;;;;;27.48;41.46;101861.00;5072906;28;20052;-73
2022/09/11 01:21:51;;;;;;;18.13;13.80;;;;;;;27.17;42.00;101879.06;5053076;28;20050;-73
2022/09/11 01:24:22;;;;;;;20.45;15.55;;;;;;;27.26;41.74;101873.09;5074219;28;20024;-72
2022/09/11 01:27:09;;;;;;;22.15;16.23;;;;;;;27.26;41.74;101872.25;5073964;28;20477;-73
2022/09/11 01:29:43;;;;;;;19.08;14.23;;;;;;;27.32;41.48;101873.69;5079209;28;20361;-73
2022/09/11 01:32:22;;;;;;;21.52;15.68;;;;;;;27.25;41.51;101882.09;5094939;28;20028;-72
2022/09/11 01:35:06;;;;;;;21.95;14.38;;;;;;;26.92;42.20;101880.63;5070812;28;20047;-72
2022/09/11 01:37:43;;;;;;;19.35;14.68;;;;;;;27.06;41.83;101876.19;5074594;28;20024;-73
2022/09/11 01:40:39;;;;;;;21.35;15.70;;;;;;;26.78;42.23;101875.25;5073753;28;20114;-73
2022/09/11 01:43:14;;;;;;;19.58;13.73;;;;;;;26.95;41.51;101879.56;5031355;28;20040;-73
2022/09/11 01:45:44;;;;;;;21.45;14.35;;;;;;;26.81;41.60;101872.38;5058844;28;20378;-73
2022/09/11 01:48:14;;;;;;;19.67;15.18;;;;;;;26.63;42.49;101870.84;5060332;28;20517;-73
2022/09/11 01:50:45;;;;;;;19.92;15.10;;;;;;;26.99;41.51;101872.19;5065349;28;20078;-73
2022/09/11 01:53:14;;;;;;;19.35;15.05;;;;;;;26.52;42.49;101871.50;5072936;28;20042;-73
2022/09/11 01:55:49;;;;;;;22.42;15.13;;;;;;;26.66;42.24;101873.31;5067442;28;20021;-73
2022/09/11 01:58:26;;;;;;;23.05;15.93;;;;;;;26.87;41.61;101869.34;5055893;28;20024;-72
2022/09/11 02:00:56;;;;;;;23.23;16.30;;;;;;;26.91;41.63;101865.50;5056340;28;20037;-73
2022/09/11 02:03:35;;;;;;;21.92;16.30;;;;;;;26.71;41.97;101873.94;5054028;28;20029;-73
2022/09/11 02:06:05;;;;;;;22.70;16.02;;;;;;;26.54;42.10;101875.81;5043677;28;20036;-72
2022/09/11 02:08:52;;;;;;;19.45;15.52;;;;;;;26.72;41.63;101881.00;5054299;28;20033;-73
2022/09/11 02:11:18;;;;;;;23.42;17.10;;;;;;;26.27;42.67;101877.47;5055210;28;20097;-73
2022/09/11 02:14:09;;;;;;;22.42;15.88;;;;;;;26.34;42.41;101879.69;5055775;28;20024;-73
2022/09/11 02:16:41;;;;;;;24.35;16.77;;;;;;;26.39;42.67;101887.44;5051332;28;20036;-73
2022/09/11 02:19:12;;;;;;;23.88;16.65;;;;;;;26.91;41.20;101888.75;5072020;28;20121;-73
2022/09/11 02:21:39;;;;;;;23.98;16.38;;;;;;;26.37;42.46;101890.22;5071917;28;20035;-73
2022/09/11 02:24:05;;;;;;;22.98;15.13;;;;;;;26.70;41.56;101880.25;5054266;28;20024;-73
2022/09/11 02:26:36;;;;;;;26.00;18.10;;;;;;;26.39;42.34;101891.00;5073512;28;20021;-73
2022/09/11 02:29:02;;;;;;;24.65;17.38;;;;;;;26.49;41.94;101888.63;5033743;28;20040;-72
2022/09/11 02:31:27;;;;;;;22.80;15.93;;;;;;;26.26;42.67;101891.84;5054294;28;20492;-72
2022/09/11 02:33:53;;;;;;;26.75;17.02;;;;;;;26.42;42.39;101893.47;5053510;28;20032;-73
2022/09/11 02:36:26;;;;;;;23.92;16.88;;;;;;;26.33;42.34;101888.69;5052523;28;20079;-73
2022/09/11 02:39:28;;;;;;;22.85;17.15;;;;;;;26.78;41.21;101894.03;5052618;28;20047;-73
2022/09/11 02:42:24;;;;;;;21.60;17.20;;;;;;;26.40;42.29;101894.53;5071748;28;20069;-73
2022/09/11 02:45:08;;;;;;;25.20;16.95;;;;;;;26.31;42.41;101889.72;5051884;28;20079;-73
2022/09/11 02:47:39;;;;;;;23.42;16.67;;;;;;;26.02;43.22;101884.28;5052482;28;20049;-73
2022/09/11 02:50:27;;;;;;;23.40;16.95;;;;;;;26.07;42.77;101882.19;5038404;28;20381;-74
2022/09/11 02:53:04;;;;;;;25.40;18.27;;;;;;;26.01;43.01;101890.56;5073230;28;20052;-73
2022/09/11 02:55:55;;;;;;;22.50;17.00;;;;;;;25.97;42.72;101897.06;5055031;28;20028;-73
2022/09/11 02:58:35;;;;;;;20.83;14.85;;;;;;;26.39;41.72;101900.84;5063949;28;20043;-73
2022/09/11 03:01:01;;;;;;;23.92;16.80;;;;;;;26.05;42.53;101905.56;5048002;28;20025;-72
2022/09/11 03:03:26;;;;;;;22.52;15.25;;;;;;;26.03;42.75;101892.22;5072745;28;20094;-73
2022/09/11 03:05:52;;;;;;;16.70;13.15;;;;;;;26.15;42.07;101896.00;5071790;28;20041;-73
2022/09/11 03:08:19;;;;;;;17.10;13.23;;;;;;;25.72;43.05;101895.81;5071151;28;20032;-73
2022/09/11 03:10:48;;;;;;;18.75;12.52;;;;;;;25.78;42.86;101898.13;5069312;28;20043;-73
2022/09/11 03:13:14;;;;;;;17.10;12.57;;;;;;;25.81;42.52;101897.94;5054091;28;20044;-72
2022/09/11 03:15:43;;;;;;;16.92;11.55;;;;;;;26.07;42.13;101898.28;5042298;28;20029;-73
2022/09/11 03:18:10;;;;;;;17.70;12.75;;;;;;;25.73;43.11;101900.19;5033275;28;20037;-73
2022/09/11 03:20:35;;;;;;;16.60;12.70;;;;;;;25.74;42.81;101907.28;5040006;28;20028;-73
2022/09/11 03:23:01;;;;;;;17.13;12.63;;;;;;;25.55;43.10;101908.34;5034821;28;20128;-73
2022/09/11 03:25:27;;;;;;;19.75;13.10;;;;;;;25.62;42.79;101902.63;5051163;28;20041;-72
2022/09/11 03:27:53;;;;;;;17.63;12.77;;;;;;;25.53;43.38;101909.38;5034636;28;20099;-73
2022/09/11 03:30:19;;;;;;;16.50;12.70;;;;;;;25.50;43.33;101910.41;5047350;28;20039;-73
2022/09/11 03:32:45;;;;;;;24.63;15.45;;;;;;;25.69;42.79;101906.69;5042898;28;20028;-73
2022/09/11 03:35:10;;;;;;;19.23;14.70;;;;;;;25.62;42.90;101905.31;5071964;28;20107;-73
2022/09/11 03:37:35;;;;;;;18.88;14.50;;;;;;;25.79;43.25;101904.31;5072250;28;20031;-73
2022/09/11 03:40:01;;;;;;;20.05;14.93;;;;;;;25.64;42.85;101896.25;5067334;28;20141;-73
2022/09/11 03:42:27;;;;;;;20.48;15.20;;;;;;;25.52;43.45;101897.78;5049377;28;20392;-73
2022/09/11 03:44:53;;;;;;;20.10;14.48;;;;;;;25.67;42.72;101898.75;5052122;28;20096;-73
2022/09/11 03:47:21;;;;;;;23.55;15.80;;;;;;;26.19;41.31;101892.19;5050990;28;20512;-73
2022/09/11 03:49:47;;;;;;;22.02;14.93;;;;;;;26.01;41.69;101898.63;5033111;28;20037;-72
2022/09/11 03:52:12;;;;;;;20.90;14.88;;;;;;;25.67;42.76;101905.91;5033405;28;20396;-73
2022/09/11 03:54:38;;;;;;;20.33;14.02;;;;;;;25.74;42.66;101896.56;5038711;28;20054;-71
2022/09/11 03:57:04;;;;;;;18.40;14.23;;;;;;;25.66;42.46;101902.34;5054434;28;20108;-71
2022/09/11 03:59:30;;;;;;;22.70;15.93;;;;;;;25.51;43.04;101904.13;5058932;28;20108;-71
2022/09/11 04:01:55;;;;;;;18.95;15.10;;;;;;;25.71;42.46;101899.44;5033210;28;20056;-71
2022/09/11 04:04:21;;;;;;;21.08;15.50;;;;;;;25.54;43.36;101901.25;5051250;28;20028;-71
2022/09/11 04:06:46;;;;;;;20.98;15.25;;;;;;;25.57;43.01;101895.72;5033889;28;20033;-71
2022/09/11 04:09:11;;;;;;;22.35;17.25;;;;;;;25.48;43.91;101895.38;5056906;28;20027;-71
2022/09/11 04:11:38;;;;;;;20.80;15.50;;;;;;;25.83;42.84;101897.84;5053812;28;20526;-71
2022/09/11 04:14:05;;;;;;;25.25;16.52;;;;;;;25.73;42.70;101894.84;5055867;28;20060;-71
2022/09/11 04:16:34;;;;;;;19.60;15.88;;;;;;;25.83;42.54;101896.06;5050402;28;20066;-71
2022/09/11 04:19:00;;;;;;;23.98;17.17;;;;;;;26.01;41.82;101887.91;5070376;28;20465;-71
2022/09/11 04:21:26;;;;;;;23.27;17.70;;;;;;;25.78;42.58;101887.41;5051703;28;20034;-71
2022/09/11 04:23:54;;;;;;;24.73;17.52;;;;;;;25.35;43.50;101905.94;5070462;28;21467;-71
2022/09/11 04:26:22;;;;;;;27.00;16.60;;;;;;;25.30;43.40;101899.94;5034376;28;20044;-71
2022/09/11 04:28:48;;;;;;;21.85;16.95;;;;;;;25.86;42.07;101900.38;5032326;28;20032;-71
2022/09/11 04:31:15;;;;;;;23.27;17.13;;;;;;;25.34;43.19;101914.91;5051601;28;20029;-72
2022/09/11 04:33:42;;;;;;;19.83;14.63;;;;;;;25.27;43.29;101919.69;5051248;28;20032;-71
2022/09/11 04:36:09;;;;;;;20.45;15.73;;;;;;;25.18;43.64;101917.50;5046173;28;20038;-71
2022/09/11 04:38:36;;;;;;;22.75;16.05;;;;;;;25.15;43.40;101915.84;5051467;28;20469;-71
2022/09/11 04:41:04;;;;;;;23.33;15.77;;;;;;;25.13;43.31;101923.13;5052468;28;20397;-71
2022/09/11 04:43:30;;;;;;;18.05;13.52;;;;;;;25.29;42.96;101923.13;5070025;28;20021;-71
2022/09/11 04:46:00;;;;;;;17.02;13.77;;;;;;;25.34;42.74;101930.94;5054517;28;20090;-71
2022/09/11 04:48:25;;;;;;;16.13;12.82;;;;;;;25.18;43.27;101926.41;5060041;28;20056;-71
2022/09/11 04:51:00;;;;;;;16.42;12.75;;;;;;;25.31;42.73;101928.41;5073646;28;20039;-72
2022/09/11 04:53:27;;;;;;;16.20;11.73;;;;;;;25.17;43.11;101923.78;5073088;28;20114;-71
2022/09/11 04:56:07;;;;;;;18.70;11.45;;;;;;;25.12;43.32;101934.75;5038441;28;20021;-71
2022/09/11 04:58:33;;;;;;;13.70;10.65;;;;;;;25.04;43.02;101939.66;5063009;28;20123;-72
2022/09/11 05:00:59;;;;;;;14.45;10.45;;;;;;;24.90;43.37;101932.38;5057364;28;20032;-71
2022/09/11 05:03:25;;;;;;;11.88;9.63;;;;;;;24.85;43.95;101940.66;5055140;28;20111;-70
2022/09/11 05:05:50;;;;;;;13.30;9.50;;;;;;;24.10;44.93;101948.00;5055456;28;20069;-71
2022/09/11 05:08:17;;;;;;;13.65;10.07;;;;;;;24.53;44.63;101940.47;5065956;28;20464;-71
2022/09/11 05:10:44;;;;;;;16.48;10.48;;;;;;;24.60;44.17;101942.84;5074167;28;20032;-72
2022/09/11 05:13:10;;;;;;;12.68;8.75;;;;;;;25.35;42.21;101951.41;5075135;28;20420;-71
2022/09/11 05:15:36;;;;;;;12.25;9.23;;;;;;;24.80;43.13;101957.84;5074986;28;20028;-71
2022/09/11 05:18:03;;;;;;;14.85;10.00;;;;;;;24.84;43.43;101954.97;5067107;28;20517;-72
2022/09/11 05:20:29;;;;;;;13.95;9.80;;;;;;;24.55;43.78;101959.09;5051956;28;20483;-71
2022/09/11 05:22:55;;;;;;;14.52;10.07;;;;;;;24.59;44.36;101965.16;5074900;28;20063;-71
2022/09/11 05:25:21;;;;;;;15.05;10.73;;;;;;;24.55;44.18;101962.66;5071999;28;20028;-71
2022/09/11 05:27:46;;;;;;;16.13;10.98;;;;;;;24.45;44.81;101977.41;5049616;28;20025;-72
2022/09/11 05:30:12;;;;;;;15.70;12.05;;;;;;;24.55;44.67;101976.03;5053923;28;20170;-72
2022/09/11 05:32:37;;;;;;;16.27;10.82;;;;;;;24.47;44.84;101975.56;5070956;28;20095;-72
2022/09/11 05:35:03;;;;;;;18.15;13.10;;;;;;;24.79;44.23;101972.19;5074619;28;20035;-72
2022/09/11 05:37:28;;;;;;;25.30;13.90;;;;;;;24.74;44.31;101969.75;5049750;28;20151;-72
2022/09/11 05:39:54;;;;;;;15.98;11.75;;;;;;;24.82;43.78;101972.88;5051000;28;20086;-72
2022/09/11 05:42:20;;;;;;;16.80;11.40;;;;;;;24.89;43.58;101979.66;5053769;28;20037;-72
2022/09/11 05:44:46;;;;;;;18.45;12.77;;;;;;;24.74;44.47;101980.44;5054642;28;20025;-72
2022/09/11 05:47:13;;;;;;;21.40;12.95;;;;;;;24.72;44.51;101988.53;5067161;28;20068;-72
2022/09/11 05:49:38;;;;;;;16.73;11.88;;;;;;;24.84;44.58;101986.16;5067552;28;20016;-72
2022/09/11 05:52:04;;;;;;;29.45;15.38;;;;;;;24.82;44.78;101988.06;5054631;28;20398;-72
2022/09/11 05:54:29;;;;;;;24.95;12.93;;;;;;;24.81;44.87;101987.22;5073360;28;20484;-72
2022/09/11 05:56:55;;;;;;;20.67;12.48;;;;;;;24.50;45.10;101983.41;5069774;28;20114;-71
2022/09/11 05:59:20;;;;;;;17.38;12.10;;;;;;;24.90;44.12;101988.53;5035227;28;20029;-71
2022/09/11 06:01:46;;;;;;;16.95;11.15;;;;;;;24.93;44.38;101987.50;5052803;28;20481;-71
2022/09/11 06:04:12;;;;;;;20.02;14.30;;;;;;;24.87;44.34;101986.88;5035747;28;20021;-71
2022/09/11 06:06:38;;;;;;;16.55;12.10;;;;;;;25.06;43.59;101988.59;5037297;28;20029;-71
2022/09/11 06:09:05;;;;;;;18.38;13.52;;;;;;;25.17;43.87;101988.88;5034888;28;20044;-71
2022/09/11 06:11:31;;;;;;;19.73;13.38;;;;;;;25.35;43.43;102002.25;5053518;28;20029;-71
2022/09/11 06:13:56;;;;;;;23.23;14.38;;;;;;;25.56;42.86;101995.69;5040944;28;20403;-71
2022/09/11 06:16:23;;;;;;;19.25;13.68;;;;;;;25.22;43.64;102002.88;5073637;28;20078;-72
2022/09/11 06:18:51;;;;;;;17.83;13.25;;;;;;;25.21;43.63;101998.47;5046428;28;20386;-72
2022/09/11 06:21:28;;;;;;;22.52;13.90;;;;;;;25.35;44.29;102002.25;5034414;28;20751;-72
2022/09/11 06:23:53;;;;;;;22.35;14.70;;;;;;;25.31;44.00;102000.66;5059606;28;20138;-72
2022/09/11 06:26:21;;;;;;;24.17;16.42;;;;;;;25.77;43.46;102008.84;5073686;28;20111;-71
2022/09/11 06:28:47;;;;;;;22.98;17.17;;;;;;;25.62;43.50;102005.19;5044885;28;20461;-71
2022/09/11 06:31:18;;;;;;;21.35;15.10;;;;;;;25.97;42.93;102009.56;5053222;28;20078;-72
2022/09/11 06:33:45;;;;;;;21.23;15.45;;;;;;;25.79;43.48;102003.41;5038283;28;20058;-71
2022/09/11 06:36:13;;;;;;;21.85;15.65;;;;;;;25.78;43.66;101999.88;5062712;28;20031;-71
2022/09/11 06:38:38;;;;;;;20.15;14.20;;;;;;;25.76;43.56;101996.44;5036845;28;20017;-71
2022/09/11 06:41:06;;;;;;;25.55;17.70;;;;;;;25.94;43.50;101993.63;5063114;28;20044;-72
2022/09/11 06:43:32;;;;;;;27.75;19.02;;;;;;;26.47;42.70;101995.03;5070111;28;20032;-71
2022/09/11 06:46:10;;;;;;;25.42;18.83;;;;;;;26.28;43.11;101992.59;5051699;28;20097;-72
2022/09/11 06:48:36;;;;;;;29.17;18.77;;;;;;;26.30;43.42;101989.84;5071343;28;20051;-71
2022/09/11 06:51:06;;;;;;;29.90;20.02;;;;;;;26.41;43.20;101998.09;5069271;28;20041;-71
2022/09/11 06:53:31;;;;;;;30.13;19.15;;;;;;;26.53;42.73;101997.38;5041122;28;20086;-71
2022/09/11 06:56:01;;;;;;;24.45;18.27;;;;;;;26.96;42.34;101998.47;5059445;28;20025;-71
2022/09/11 06:58:28;;;;;;;27.70;18.35;;;;;;;26.92;42.53;101993.25;5057984;28;20021;-72
2022/09/11 07:01:03;;;;;;;28.77;17.55;;;;;;;27.01;42.81;101991.84;5055980;28;20504;-71
2022/09/11 07:03:29;;;;;;;27.42;19.20;;;;;;;26.99;43.10;101999.13;5038166;28;20136;-71
2022/09/11 07:05:54;;;;;;;27.58;19.40;;;;;;;27.07;43.09;101990.63;5034632;28;20074;-71
2022/09/11 07:08:19;;;;;;;25.65;17.65;;;;;;;27.47;43.01;101996.19;5057190;28;20017;-71
2022/09/11 07:10:45;;;;;;;29.10;19.58;;;;;;;27.56;42.48;101992.91;5036643;28;20109;-71
2022/09/11 07:13:10;;;;;;;31.23;20.23;;;;;;;27.58;42.49;102001.72;5062858;28;20067;-71
2022/09/11 07:15:35;;;;;;;34.47;22.30;;;;;;;27.44;43.06;102004.44;5070770;28;20052;-71
2022/09/11 07:18:01;;;;;;;29.63;21.08;;;;;;;27.85;42.19;102003.59;5071852;28;20025;-71
2022/09/11 07:20:27;;;;;;;32.85;23.02;;;;;;;28.07;42.09;102012.97;5054735;28;20034;-71
2022/09/11 07:22:52;;;;;;;32.95;20.92;;;;;;;28.27;42.19;101999.09;5048519;28;20016;-71
2022/09/11 07:25:18;;;;;;;35.38;24.52;;;;;;;28.14;43.14;102014.28;5062628;28;20031;-71
2022/09/11 07:27:43;;;;;;;40.38;24.85;;;;;;;29.90;41.60;102012.88;5045204;28;20082;-71
2022/09/11 07:30:09;;;;;;;31.02;21.35;;;;;;;32.03;39.86;102019.78;5052649;28;20094;-71
2022/09/11 07:32:36;;;;;;;26.80;19.27;;;;;;;32.76;35.61;102024.53;5050449;28;20052;-71
2022/09/11 07:35:02;;;;;;;22.30;14.85;;;;;;;34.09;35.01;102023.66;5040429;28;20033;-71
2022/09/11 07:37:27;;;;;;;21.13;16.42;;;;;;;33.28;34.10;102025.41;5068513;28;20481;-71
2022/09/11 07:39:52;;;;;;;17.70;14.38;;;;;;;33.86;32.80;102034.75;5033458;28;20071;-72
2022/09/11 07:42:18;;;;;;;17.52;13.93;;;;;;;34.78;31.82;102035.34;5052296;28;20037;-71
2022/09/11 07:44:43;;;;;;;15.38;11.65;;;;;;;34.74;30.07;102031.19;5057373;28;20036;-72
2022/09/11 07:47:09;;;;;;;12.65;11.25;;;;;;;35.09;29.45;102033.28;5052866;28;20071;-72
2022/09/11 07:49:34;;;;;;;14.10;11.40;;;;;;;34.70;30.26;102037.94;5052200;28;20028;-72
2022/09/11 07:52:02;;;;;;;17.15;13.35;;;;;;;35.24;29.93;102036.38;5034167;28;20480;-72
2022/09/11 07:54:28;;;;;;;16.83;13.88;;;;;;;35.22;29.45;102032.94;5059557;28;20017;-72
2022/09/11 07:56:55;;;;;;;15.93;13.98;;;;;;;35.21;29.20;102036.66;5051148;28;20112;-72
2022/09/11 07:59:21;;;;;;;14.25;12.02;;;;;;;35.07;29.96;102042.56;5038018;28;20020;-72
2022/09/11 08:01:47;;;;;;;13.63;12.23;;;;;;;33.96;30.63;102046.47;5056151;28;20021;-72
2022/09/11 08:04:13;;;;;;;13.00;10.90;;;;;;;34.26;31.36;102041.91;5031415;28;20043;-72
2022/09/11 08:06:38;;;;;;;13.38;11.73;;;;;;;33.02;31.65;102043.09;5044505;28;20027;-72
2022/09/11 08:09:07;;;;;;;16.38;12.98;;;;;;;32.75;33.95;102041.75;5068241;28;20469;-72
2022/09/11 08:11:36;;;;;;;15.88;13.25;;;;;;;31.03;35.65;102044.88;5055438;28;20083;-72
2022/09/11 08:14:02;;;;;;;16.98;14.10;;;;;;;32.20;33.73;102045.41;5035142;28;20027;-72
2022/09/11 08:16:28;;;;;;;15.60;12.73;;;;;;;31.67;34.08;102048.84;5067458;28;20384;-72
2022/09/11 08:18:54;;;;;;;16.55;13.32;;;;;;;31.58;35.44;102050.41;5071981;28;20111;-72
2022/09/11 08:21:21;;;;;;;15.93;14.15;;;;;;;32.08;35.14;102051.81;5070951;28;20115;-72
2022/09/11 08:23:47;;;;;;;16.02;11.88;;;;;;;31.45;35.12;102049.69;5071744;28;20027;-72
2022/09/11 08:26:18;;;;;;;14.68;10.70;;;;;;;32.10;34.40;102049.88;5055629;28;20024;-72
2022/09/11 08:28:43;;;;;;;13.52;10.88;;;;;;;32.82;32.17;102048.34;5049735;28;20107;-72
2022/09/11 08:31:11;;;;;;;11.90;10.57;;;;;;;32.44;32.87;102058.75;5071708;28;20107;-72
2022/09/11 08:33:36;;;;;;;10.23;8.73;;;;;;;32.51;32.22;102052.78;5053659;28;20024;-72
2022/09/11 08:36:05;;;;;;;13.50;9.18;;;;;;;32.88;31.97;102055.09;5070951;28;20366;-72
2022/09/11 08:38:32;;;;;;;15.23;9.70;;;;;;;33.70;31.86;102045.22;5061003;28;20113;-72
2022/09/11 08:41:07;;;;;;;11.63;9.57;;;;;;;33.34;31.30;102044.81;5071479;28;20023;-72
2022/09/11 08:43:38;;;;;;;11.85;8.98;;;;;;;33.89;29.97;102045.28;5070860;28;20082;-72
2022/09/11 08:46:08;;;;;;;10.38;7.65;;;;;;;34.31;30.63;102055.94;5071520;28;20024;-72
2022/09/11 08:48:53;;;;;;;10.82;7.75;;;;;;;33.40;30.93;102063.22;5061140;28;20123;-72
2022/09/11 08:51:19;;;;;;;12.25;8.48;;;;;;;33.42;32.06;102058.56;5053555;28;20025;-72
2022/09/11 08:53:45;;;;;;;10.18;6.15;;;;;;;33.00;31.46;102061.28;5053557;28;20024;-72
2022/09/11 08:56:21;;;;;;;8.38;5.47;;;;;;;32.38;32.00;102063.81;5070539;28;20161;-72
2022/09/11 08:59:07;;;;;;;7.82;4.65;;;;;;;32.80;30.03;102061.19;5077051;28;20036;-72
2022/09/11 09:02:05;;;;;;;6.22;3.65;;;;;;;33.03;30.49;102061.00;5053220;28;20074;-72
2022/09/11 09:05:01;;;;;;;5.97;4.75;;;;;;;33.07;31.43;102065.19;4967539;28;20041;-72
2022/09/11 09:07:43;;;;;;;5.75;3.80;;;;;;;32.23;30.85;102072.22;5052483;28;20032;-72
2022/09/11 09:10:42;;;;;;;5.40;3.33;;;;;;;31.70;32.64;102069.38;5075023;28;20063;-71
2022/09/11 09:13:44;;;;;;;4.93;3.70;;;;;;;31.99;31.69;102071.53;5073290;28;20388;-72
2022/09/11 09:16:41;;;;;;;9.38;3.10;;;;;;;32.71;29.90;102070.09;5091517;28;20047;-72
2022/09/11 09:19:13;;;;;;;6.93;3.00;;;;;;;32.95;29.49;102067.13;5063825;28;20052;-72
2022/09/11 09:21:48;;;;;;;;;;;;;;;32.41;31.96;102079.78;5070314;28;20373;-72
2022/09/11 09:24:18;;;;;;;3.10;2.70;;;;;;;32.71;31.36;102067.38;5067762;28;19916;-72
2022/09/11 09:26:51;;;;;;;4.13;3.22;;;;;;;32.44;31.73;102074.13;5071019;28;20028;-72
2022/09/11 09:29:24;;;;;;;6.97;4.38;;;;;;;32.38;31.72;102080.03;5070676;28;20071;-72
2022/09/11 09:31:58;;;;;;;9.63;5.78;;;;;;;30.06;35.31;102081.81;5062807;28;20059;-72
2022/09/11 09:34:29;;;;;;;9.02;5.78;;;;;;;31.59;33.53;102083.72;5081243;28;20495;-71
2022/09/11 09:37:02;;;;;;;8.77;5.75;;;;;;;32.08;33.24;102071.63;5074815;28;20468;-72
2022/09/11 09:39:28;;;;;;;11.00;6.78;;;;;;;31.16;33.52;102071.78;5073813;28;20024;-72
2022/09/11 09:42:01;;;;;;;10.75;6.35;;;;;;;29.95;35.43;102075.41;5056327;28;20491;-71
2022/09/11 09:44:41;;;;;;;9.45;6.90;;;;;;;30.60;35.35;102081.41;5085960;28;20024;-72
2022/09/11 09:47:11;;;;;;;12.23;6.10;;;;;;;31.65;34.23;102082.38;5075417;28;20032;-72
2022/09/11 09:49:37;;;;;;;8.90;6.20;;;;;;;31.82;34.39;102084.59;5076591;28;20103;-72
2022/09/11 09:52:23;;;;;;;9.38;7.65;;;;;;;32.34;32.48;102081.28;5069317;28;20024;-72
2022/09/11 09:54:59;;;;;;;10.82;6.20;;;;;;;32.48;32.90;102089.97;5073992;28;20028;-72
2022/09/11 09:57:29;;;;;;;12.45;7.32;;;;;;;31.39;33.75;102082.59;5074174;28;20020;-72
2022/09/11 10:00:08;;;;;;;11.00;6.25;;;;;;;32.11;33.05;102086.75;5055638;28;20031;-72
2022/09/11 10:02:44;;;;;;;7.15;6.43;;;;;;;31.13;34.27;102086.38;5055675;28;20040;-72
2022/09/11 10:05:26;;;;;;;10.45;6.13;;;;;;;32.21;32.79;102085.00;5073688;28;20033;-72
2022/09/11 10:08:00;;;;;;;10.85;5.85;;;;;;;31.67;33.57;102085.81;5073186;28;20052;-72
2022/09/11 10:10:36;;;;;;;10.40;6.30;;;;;;;32.20;32.43;102094.09;5074095;28;20024;-72
2022/09/11 10:13:23;;;;;;;7.13;5.55;;;;;;;32.18;34.35;102085.28;5085307;28;20039;-72
2022/09/11 10:15:51;;;;;;;9.60;6.55;;;;;;;32.35;32.39;102081.16;5073884;28;20028;-72
2022/09/11 10:18:29;;;;;;;7.65;6.05;;;;;;;32.05;33.39;102081.81;5094334;28;20024;-72
2022/09/11 10:21:10;;;;;;;9.43;5.60;;;;;;;32.36;32.88;102072.06;5075338;28;20028;-72
2022/09/11 10:23:56;;;;;;;7.68;5.18;;;;;;;32.16;33.14;102073.69;5091519;28;20063;-72
2022/09/11 10:26:24;;;;;;;8.15;5.05;;;;;;;31.73;32.61;102085.31;5075852;28;20028;-72
2022/09/11 10:28:52;;;;;;;6.97;5.25;;;;;;;32.49;32.22;102071.88;5075187;28;20020;-72
2022/09/11 10:31:21;;;;;;;9.50;6.00;;;;;;;32.41;32.08;102068.94;5075910;28;20012;-72
2022/09/11 10:33:55;;;;;;;8.90;5.38;;;;;;;32.21;33.07;102067.94;5072273;28;20059;-73
2022/09/11 10:36:23;;;;;;;7.18;5.32;;;;;;;32.13;33.96;102072.06;5092434;28;20024;-72
2022/09/11 10:38:50;;;;;;;7.68;5.55;;;;;;;32.50;32.53;102073.59;5093928;28;20487;-72
2022/09/11 10:41:25;;;;;;;8.15;6.53;;;;;;;32.21;32.54;102068.78;5076758;28;20024;-72
2022/09/11 10:44:01;;;;;;;7.88;4.68;;;;;;;31.87;32.50;102071.53;5072029;28;20074;-73
2022/09/11 10:46:28;;;;;;;8.10;5.55;;;;;;;32.47;31.06;102069.28;5073376;28;20468;-73
2022/09/11 10:49:15;;;;;;;7.40;5.55;;;;;;;31.84;31.85;102068.25;5053945;28;20270;-72
2022/09/11 10:51:56;;;;;;;6.63;4.20;;;;;;;32.33;30.75;102072.31;5079449;28;20039;-72
2022/09/11 10:54:37;;;;;;;6.88;3.85;;;;;;;32.78;30.43;102060.44;5093490;28;20498;-72
2022/09/11 10:57:55;;;;;;;5.05;3.67;;;;;;;32.72;30.60;102060.97;5092828;28;20016;-72
2022/09/11 11:00:26;;;;;;;7.93;3.50;;;;;;;33.03;30.61;102066.44;4989763;28;20030;-72
2022/09/11 11:02:58;;;;;;;4.53;3.05;;;;;;;33.22;30.90;102052.16;4974171;28;20441;-72
2022/09/11 11:05:42;;;;;;;7.55;3.90;;;;;;;32.46;30.17;102066.72;5026181;28;20037;-72
2022/09/11 11:08:35;;;;;;;7.63;4.47;;;;;;;32.53;31.40;102056.25;5072954;28;20024;-72
2022/09/11 11:11:38;;;;;;;4.80;4.00;;;;;;;32.89;30.83;102056.81;5070908;28;20019;-72
2022/09/11 11:14:36;;;;;;;5.13;3.55;;;;;;;33.13;30.49;102059.25;5093077;28;20043;-71
2022/09/11 11:17:14;;;;;;;5.55;3.30;;;;;;;34.19;29.61;102054.34;5050099;28;20036;-72
2022/09/11 11:20:16;;;;;;;9.13;2.83;;;;;;;32.42;32.75;102062.56;5066753;28;20060;-72
2022/09/11 11:23:07;;;;;;;6.28;3.45;;;;;;;34.19;29.54;102053.50;5088763;28;20035;-72
2022/09/11 11:25:42;;;;;;;6.50;2.78;;;;;;;34.52;28.61;102051.38;5086975;28;20090;-72
2022/09/11 11:28:34;;;;;;;4.97;2.30;;;;;;;35.05;27.62;102052.72;5092879;28;20111;-71
2022/09/11 11:31:14;;;;;;;3.22;2.42;;;;;;;34.16;27.27;102051.91;5078454;28;20057;-72